Time;durP1;ratioP1;P1;durP2;ratioP2;P2;SDS_P1;SDS_P2;PMS_P1;PMS_P2;Temp;Humidity;BMP_temperature;BMP_pressure;BME280_temperature;BME280_humidity;BME280_pressure;Samples;Min_cycle;Max_cycle;Signal;HPM_P1;HPM_P2
2022/12/20 00:02:23;;;;;;;4.38;2.60;;;;;;;;;;5052142;28;20397;-58
2022/12/20 00:04:48;;;;;;;4.60;2.60;;;;;;;;;;5052095;28;20044;-59
2022/12/20 00:07:14;;;;;;;5.50;2.50;;;;;;;;;;5053926;28;20082;-56
2022/12/20 00:09:39;;;;;;;5.20;2.65;;;;;;;;;;5052180;28;20037;-57
2022/12/20 00:12:05;;;;;;;5.45;2.85;;;;;;;;;;5053076;28;20033;-57
2022/12/20 00:14:30;;;;;;;4.57;2.60;;;;;;;;;;5053857;28;20028;-55
2022/12/20 00:16:55;;;;;;;4.07;2.67;;;;;;;;;;5053020;28;20033;-57
2022/12/20 00:19:21;;;;;;;5.63;2.60;;;;;;;;;;5053694;28;20035;-57
2022/12/20 00:21:46;;;;;;;6.43;2.83;;;;;;;;;;5054131;28;20033;-56
2022/12/20 00:24:12;;;;;;;4.75;2.80;;;;;;;;;;5052475;28;20094;-57
2022/12/20 00:26:37;;;;;;;4.65;2.75;;;;;;;;;;5053303;28;20389;-58
2022/12/20 00:29:04;;;;;;;3.88;2.53;;;;;;;;;;5051619;28;20442;-54
2022/12/20 00:31:30;;;;;;;5.50;3.05;;;;;;;;;;5053818;28;20056;-56
2022/12/20 00:33:56;;;;;;;4.55;2.45;;;;;;;;;;5051215;28;20116;-57
2022/12/20 00:36:23;;;;;;;5.00;2.63;;;;;;;;;;5052082;28;20041;-57
2022/12/20 00:38:52;;;;;;;7.15;2.63;;;;;;;;;;5053693;28;20033;-56
2022/12/20 00:41:23;;;;;;;7.65;2.65;;;;;;;;;;5051284;28;20033;-57
2022/12/20 00:43:48;;;;;;;3.75;2.70;;;;;;;;;;5045719;28;20102;-56
2022/12/20 00:46:15;;;;;;;5.55;2.53;;;;;;;;;;5050902;28;20478;-58
2022/12/20 00:48:41;;;;;;;5.18;2.50;;;;;;;;;;5049707;28;20087;-58
2022/12/20 00:51:12;;;;;;;4.43;2.45;;;;;;;;;;5052857;28;20028;-57
2022/12/20 00:53:38;;;;;;;3.75;2.35;;;;;;;;;;5052936;28;20482;-57
2022/12/20 00:56:05;;;;;;;4.68;2.33;;;;;;;;;;5053346;28;20060;-56
2022/12/20 00:58:32;;;;;;;4.78;2.60;;;;;;;;;;5045953;28;20033;-57
2022/12/20 01:00:58;;;;;;;6.38;2.45;;;;;;;;;;5053291;28;20112;-57
2022/12/20 01:03:24;;;;;;;7.25;2.60;;;;;;;;;;5053449;28;20107;-58
2022/12/20 01:05:55;;;;;;;6.38;2.53;;;;;;;;;;5055425;28;20074;-52
2022/12/20 01:08:22;;;;;;;5.68;2.47;;;;;;;;;;5053230;28;20493;-56
2022/12/20 01:11:01;;;;;;;4.07;2.10;;;;;;;;;;5053436;28;20032;-56
2022/12/20 01:13:26;;;;;;;6.60;2.15;;;;;;;;;;5053721;28;20029;-57
2022/12/20 01:15:52;;;;;;;3.30;2.28;;;;;;;;;;5053762;28;20044;-60
2022/12/20 01:18:17;;;;;;;3.80;2.28;;;;;;;;;;5052575;28;20117;-56
2022/12/20 01:20:42;;;;;;;3.40;2.10;;;;;;;;;;5053448;28;20115;-58
2022/12/20 01:23:08;;;;;;;5.55;2.30;;;;;;;;;;5051927;28;20397;-54
2022/12/20 01:25:33;;;;;;;3.65;2.20;;;;;;;;;;5054287;28;20063;-57
2022/12/20 01:27:58;;;;;;;3.70;2.20;;;;;;;;;;5049848;28;20032;-56
2022/12/20 01:30:24;;;;;;;4.50;2.22;;;;;;;;;;5050682;28;20051;-57
2022/12/20 01:32:49;;;;;;;5.30;2.33;;;;;;;;;;5049991;28;20052;-57
2022/12/20 01:35:15;;;;;;;5.07;2.28;;;;;;;;;;5049753;28;20025;-56
2022/12/20 01:37:40;;;;;;;4.45;2.25;;;;;;;;;;5049945;28;20437;-55
2022/12/20 01:40:06;;;;;;;2.78;1.80;;;;;;;;;;5052398;28;20032;-57
2022/12/20 01:42:31;;;;;;;3.60;2.22;;;;;;;;;;5051182;28;20037;-56
2022/12/20 01:44:58;;;;;;;4.18;2.00;;;;;;;;;;5060995;28;20383;-60
2022/12/20 01:47:25;;;;;;;5.47;2.10;;;;;;;;;;5052399;28;20041;-57
2022/12/20 01:49:54;;;;;;;3.20;2.10;;;;;;;;;;5053458;28;20059;-55
2022/12/20 01:52:36;;;;;;;4.30;2.20;;;;;;;;;;5050976;28;20032;-55
2022/12/20 01:55:22;;;;;;;2.95;2.08;;;;;;;;;;5032754;28;20048;-55
2022/12/20 01:57:57;;;;;;;3.05;2.00;;;;;;;;;;5047626;28;20060;-58
2022/12/20 02:00:23;;;;;;;5.32;2.28;;;;;;;;;;5050323;28;20055;-56
2022/12/20 02:02:49;;;;;;;5.70;2.08;;;;;;;;;;5050167;28;21725;-56
2022/12/20 02:05:20;;;;;;;4.80;2.10;;;;;;;;;;5051678;28;20808;-53
2022/12/20 02:07:50;;;;;;;4.15;2.20;;;;;;;;;;5049627;28;20134;-55
2022/12/20 02:10:16;;;;;;;5.22;2.30;;;;;;;;;;5045661;28;20630;-57
2022/12/20 02:12:44;;;;;;;5.38;2.65;;;;;;;;;;5047990;28;20116;-55
2022/12/20 02:15:18;;;;;;;4.00;2.28;;;;;;;;;;5052217;28;20079;-57
2022/12/20 02:17:56;;;;;;;7.53;2.30;;;;;;;;;;5051647;28;20055;-57
2022/12/20 02:20:55;;;;;;;4.15;2.40;;;;;;;;;;5050630;28;20033;-57
2022/12/20 02:23:23;;;;;;;6.13;2.60;;;;;;;;;;5046532;28;20398;-53
2022/12/20 02:26:03;;;;;;;3.58;2.22;;;;;;;;;;5050944;28;20397;-56
2022/12/20 02:28:50;;;;;;;3.95;2.40;;;;;;;;;;5046142;28;20052;-54
2022/12/20 02:31:20;;;;;;;4.18;2.30;;;;;;;;;;5049953;28;20029;-56
2022/12/20 02:33:47;;;;;;;5.28;2.20;;;;;;;;;;5049453;28;20419;-56
2022/12/20 02:36:17;;;;;;;4.75;2.40;;;;;;;;;;5050224;28;20033;-56
2022/12/20 02:38:43;;;;;;;4.18;2.08;;;;;;;;;;5052517;28;20058;-55
2022/12/20 02:41:23;;;;;;;4.55;2.40;;;;;;;;;;5051280;28;20033;-56
2022/12/20 02:46:40;;;;;;;4.95;2.30;;;;;;;;;;5038080;28;20086;-54
2022/12/20 02:49:11;;;;;;;4.68;2.28;;;;;;;;;;5048567;28;20029;-51
2022/12/20 02:51:37;;;;;;;5.37;2.27;;;;;;;;;;5050621;28;20033;-57
2022/12/20 02:54:03;;;;;;;5.15;2.30;;;;;;;;;;5049107;28;20067;-55
2022/12/20 02:56:47;;;;;;;4.35;2.47;;;;;;;;;;5050410;28;20080;-57
2022/12/20 02:59:17;;;;;;;5.05;2.35;;;;;;;;;;5042208;28;20033;-57
2022/12/20 03:01:54;;;;;;;6.53;2.47;;;;;;;;;;5050950;28;20087;-57
2022/12/20 03:04:25;;;;;;;3.75;2.00;;;;;;;;;;5049139;28;20025;-56
2022/12/20 03:06:59;;;;;;;;;;;;;;;;;;5049175;28;20079;-58
2022/12/20 03:09:25;;;;;;;4.93;2.45;;;;;;;;;;5058625;28;19956;-56
2022/12/20 03:11:51;;;;;;;3.67;2.10;;;;;;;;;;5050367;28;20064;-55
2022/12/20 03:14:17;;;;;;;4.25;2.30;;;;;;;;;;5047277;28;20029;-55
2022/12/20 03:16:42;;;;;;;4.45;2.67;;;;;;;;;;5051156;28;20036;-58
2022/12/20 03:19:07;;;;;;;3.03;2.08;;;;;;;;;;5048365;28;20082;-56
2022/12/20 03:21:33;;;;;;;4.43;2.40;;;;;;;;;;5049420;28;20029;-56
2022/12/20 03:23:58;;;;;;;4.90;2.97;;;;;;;;;;5050275;28;20424;-56
2022/12/20 03:26:23;;;;;;;4.57;2.60;;;;;;;;;;5048008;28;20075;-55
2022/12/20 03:28:49;;;;;;;6.53;2.92;;;;;;;;;;5049511;28;20501;-55
2022/12/20 03:31:14;;;;;;;4.22;2.63;;;;;;;;;;5050160;28;20113;-60
2022/12/20 03:33:40;;;;;;;4.85;3.10;;;;;;;;;;5050785;28;20485;-59
2022/12/20 03:36:05;;;;;;;3.58;2.38;;;;;;;;;;5049139;28;20025;-61
2022/12/20 03:38:31;;;;;;;4.05;2.60;;;;;;;;;;5051585;28;20032;-60
2022/12/20 03:40:56;;;;;;;6.32;3.22;;;;;;;;;;5049330;28;20104;-59
2022/12/20 03:43:21;;;;;;;4.25;2.72;;;;;;;;;;5047988;28;20103;-60
2022/12/20 03:45:47;;;;;;;4.78;2.78;;;;;;;;;;5049499;28;20419;-59
2022/12/20 03:48:12;;;;;;;8.07;2.90;;;;;;;;;;5048463;28;20044;-59
2022/12/20 03:50:38;;;;;;;3.97;2.70;;;;;;;;;;5050599;28;20033;-59
2022/12/20 03:53:04;;;;;;;4.90;3.10;;;;;;;;;;5040534;28;20107;-60
2022/12/20 03:55:29;;;;;;;5.50;3.35;;;;;;;;;;5062825;28;20059;-62
2022/12/20 03:57:54;;;;;;;6.05;2.90;;;;;;;;;;5051182;28;20053;-61
2022/12/20 04:00:21;;;;;;;7.00;3.20;;;;;;;;;;5047189;28;20126;-62
2022/12/20 04:02:46;;;;;;;4.55;3.00;;;;;;;;;;5048493;28;20028;-62
2022/12/20 04:05:12;;;;;;;5.22;3.30;;;;;;;;;;5049465;28;20458;-61
2022/12/20 04:07:37;;;;;;;6.00;3.30;;;;;;;;;;5049796;28;20037;-61
2022/12/20 04:10:03;;;;;;;6.00;2.95;;;;;;;;;;5050355;28;20494;-63
2022/12/20 04:12:28;;;;;;;5.63;3.22;;;;;;;;;;5047093;28;20121;-61
2022/12/20 04:14:54;;;;;;;5.38;3.47;;;;;;;;;;5050794;28;20036;-61
2022/12/20 04:17:19;;;;;;;5.25;3.20;;;;;;;;;;5047150;28;20033;-60
2022/12/20 04:19:45;;;;;;;6.75;3.38;;;;;;;;;;5048539;28;20036;-60
2022/12/20 04:22:10;;;;;;;6.10;3.00;;;;;;;;;;5048714;28;20051;-61
2022/12/20 04:24:35;;;;;;;4.38;3.10;;;;;;;;;;5049533;28;20022;-61
2022/12/20 04:27:01;;;;;;;6.05;3.17;;;;;;;;;;5049819;28;20037;-61
2022/12/20 04:29:26;;;;;;;5.97;3.03;;;;;;;;;;5045729;28;20239;-61
2022/12/20 04:31:52;;;;;;;8.40;2.92;;;;;;;;;;5049177;28;20104;-62
2022/12/20 04:34:17;;;;;;;4.95;3.00;;;;;;;;;;5048894;28;20106;-61
2022/12/20 04:36:43;;;;;;;8.43;3.15;;;;;;;;;;5049409;28;20033;-61
2022/12/20 04:39:08;;;;;;;6.30;3.22;;;;;;;;;;5048493;28;20385;-63
2022/12/20 04:41:33;;;;;;;5.05;2.97;;;;;;;;;;5045811;28;20056;-61
2022/12/20 04:43:59;;;;;;;5.55;3.17;;;;;;;;;;5048903;28;20127;-62
2022/12/20 04:46:24;;;;;;;6.00;3.20;;;;;;;;;;5048271;28;20498;-60
2022/12/20 04:48:50;;;;;;;8.20;3.15;;;;;;;;;;5053817;28;20041;-60
2022/12/20 04:51:16;;;;;;;6.07;2.80;;;;;;;;;;5051799;28;20032;-60
2022/12/20 04:53:48;;;;;;;7.40;2.97;;;;;;;;;;5046099;28;20500;-60
2022/12/20 04:56:22;;;;;;;6.10;3.08;;;;;;;;;;5051173;28;20485;-60
2022/12/20 04:58:50;;;;;;;5.32;3.10;;;;;;;;;;5052216;28;20048;-60
2022/12/20 05:01:16;;;;;;;5.32;2.90;;;;;;;;;;5051380;28;20039;-61
2022/12/20 05:03:43;;;;;;;7.82;3.17;;;;;;;;;;5050893;28;20061;-59
2022/12/20 05:06:09;;;;;;;5.45;3.22;;;;;;;;;;5053263;28;20469;-63
2022/12/20 05:08:35;;;;;;;7.43;3.03;;;;;;;;;;5052708;28;20029;-61
2022/12/20 05:11:01;;;;;;;4.38;2.97;;;;;;;;;;5052331;28;20037;-62
2022/12/20 05:13:27;;;;;;;5.43;3.15;;;;;;;;;;5048650;28;20148;-61
2022/12/20 05:15:53;;;;;;;5.82;3.05;;;;;;;;;;5051499;28;20040;-61
2022/12/20 05:18:19;;;;;;;7.78;3.60;;;;;;;;;;5050482;28;20116;-62
2022/12/20 05:20:46;;;;;;;6.28;3.70;;;;;;;;;;5037557;28;20061;-61
2022/12/20 05:28:40;;;;;;;5.82;3.45;;;;;;;;;;5051357;28;20184;-61
2022/12/20 05:31:05;;;;;;;9.10;3.55;;;;;;;;;;5052681;28;20401;-61
2022/12/20 05:33:31;;;;;;;7.88;3.60;;;;;;;;;;5052299;28;20465;-61
2022/12/20 05:35:56;;;;;;;7.30;3.65;;;;;;;;;;5051721;28;20033;-61
2022/12/20 05:38:23;;;;;;;7.15;3.80;;;;;;;;;;5051476;28;20025;-61
2022/12/20 05:40:50;;;;;;;5.93;3.53;;;;;;;;;;5049508;28;20036;-61
2022/12/20 05:43:16;;;;;;;7.82;3.85;;;;;;;;;;5047425;28;20055;-62
2022/12/20 05:45:50;;;;;;;5.63;3.75;;;;;;;;;;5049413;28;20040;-61
2022/12/20 05:48:17;;;;;;;6.55;3.85;;;;;;;;;;5049800;28;20078;-60
2022/12/20 05:50:43;;;;;;;7.22;3.60;;;;;;;;;;5053569;28;20025;-60
2022/12/20 05:53:14;;;;;;;7.38;3.97;;;;;;;;;;5050091;28;20032;-61
2022/12/20 05:55:44;;;;;;;6.50;3.97;;;;;;;;;;5051398;28;20573;-60
2022/12/20 05:58:12;;;;;;;7.68;3.80;;;;;;;;;;5049440;28;20065;-62
2022/12/20 06:00:39;;;;;;;6.95;4.00;;;;;;;;;;5050044;28;20109;-60
2022/12/20 06:03:04;;;;;;;7.15;4.10;;;;;;;;;;5052865;28;20036;-59
2022/12/20 06:05:30;;;;;;;6.68;3.72;;;;;;;;;;5051470;28;20024;-59
2022/12/20 06:07:56;;;;;;;5.22;3.38;;;;;;;;;;5045545;28;20447;-60
2022/12/20 06:10:21;;;;;;;8.10;3.67;;;;;;;;;;5032607;28;20108;-60
2022/12/20 06:12:47;;;;;;;5.40;3.25;;;;;;;;;;5051652;28;20037;-61
2022/12/20 06:15:14;;;;;;;7.95;3.80;;;;;;;;;;5052410;28;20057;-62
2022/12/20 06:17:39;;;;;;;6.18;3.90;;;;;;;;;;5051157;28;20035;-61
2022/12/20 06:20:05;;;;;;;6.60;3.42;;;;;;;;;;5053397;28;20416;-62
2022/12/20 06:22:31;;;;;;;5.90;3.50;;;;;;;;;;5050721;28;20537;-61
2022/12/20 06:24:56;;;;;;;7.47;3.53;;;;;;;;;;5052945;28;20075;-60
2022/12/20 06:27:22;;;;;;;6.00;3.55;;;;;;;;;;5051525;28;20386;-61
2022/12/20 06:29:50;;;;;;;6.38;3.67;;;;;;;;;;5053074;28;20021;-60
2022/12/20 06:32:16;;;;;;;7.80;3.80;;;;;;;;;;5050304;28;20070;-61
2022/12/20 06:34:43;;;;;;;6.68;3.78;;;;;;;;;;5051987;28;20103;-60
2022/12/20 06:37:08;;;;;;;9.18;3.60;;;;;;;;;;5067993;28;20032;-60
2022/12/20 06:39:33;;;;;;;5.93;3.30;;;;;;;;;;5059458;28;20021;-63
2022/12/20 06:41:59;;;;;;;8.50;4.07;;;;;;;;;;5052265;28;20466;-60
2022/12/20 06:44:24;;;;;;;6.70;3.38;;;;;;;;;;5049804;28;20112;-60
2022/12/20 06:46:49;;;;;;;6.03;3.40;;;;;;;;;;5052431;28;20028;-61
2022/12/20 06:49:15;;;;;;;4.80;3.17;;;;;;;;;;5050428;28;20528;-62
2022/12/20 06:51:40;;;;;;;5.60;3.20;;;;;;;;;;5032472;28;20026;-60
2022/12/20 06:54:06;;;;;;;9.32;3.35;;;;;;;;;;5053347;28;20032;-60
2022/12/20 06:56:31;;;;;;;6.38;3.28;;;;;;;;;;5051310;28;20199;-60
2022/12/20 06:58:57;;;;;;;6.68;3.30;;;;;;;;;;5050894;28;20392;-59
2022/12/20 07:01:22;;;;;;;6.00;3.13;;;;;;;;;;5050429;28;20033;-58
2022/12/20 07:03:47;;;;;;;6.65;3.30;;;;;;;;;;5050294;28;20032;-58
2022/12/20 07:06:13;;;;;;;5.80;3.30;;;;;;;;;;5050336;28;20478;-59
2022/12/20 07:08:38;;;;;;;4.50;3.03;;;;;;;;;;5042444;28;20079;-60
2022/12/20 07:11:07;;;;;;;5.75;3.40;;;;;;;;;;5050141;28;20393;-59
2022/12/20 07:13:33;;;;;;;11.25;3.83;;;;;;;;;;5050744;28;20025;-60
2022/12/20 07:16:03;;;;;;;6.05;3.40;;;;;;;;;;5051411;28;20033;-59
2022/12/20 07:18:29;;;;;;;5.85;3.55;;;;;;;;;;5051268;28;20159;-58
2022/12/20 07:20:59;;;;;;;6.15;3.55;;;;;;;;;;5051416;28;20043;-58
2022/12/20 07:23:24;;;;;;;7.88;3.70;;;;;;;;;;5049962;28;20021;-59
2022/12/20 07:25:58;;;;;;;6.78;3.58;;;;;;;;;;5050232;28;20044;-58
2022/12/20 07:28:25;;;;;;;8.00;3.40;;;;;;;;;;5049127;28;20453;-61
2022/12/20 07:30:50;;;;;;;5.13;3.03;;;;;;;;;;5051060;28;20104;-57
2022/12/20 07:33:16;;;;;;;4.47;3.00;;;;;;;;;;5050585;28;20163;-60
2022/12/20 07:35:44;;;;;;;7.43;3.20;;;;;;;;;;5049391;28;20065;-58
2022/12/20 07:38:10;;;;;;;5.72;3.50;;;;;;;;;;5041034;28;20151;-59
2022/12/20 07:40:38;;;;;;;4.65;2.83;;;;;;;;;;5047828;28;20564;-57
2022/12/20 07:43:03;;;;;;;4.85;2.90;;;;;;;;;;5048284;28;20481;-58
2022/12/20 07:45:29;;;;;;;4.45;2.90;;;;;;;;;;5047421;28;20147;-57
2022/12/20 07:47:56;;;;;;;6.35;2.78;;;;;;;;;;5050921;28;20419;-57
2022/12/20 07:50:21;;;;;;;4.68;2.97;;;;;;;;;;5049052;28;20032;-57
2022/12/20 07:52:48;;;;;;;4.38;2.53;;;;;;;;;;5050595;28;20029;-55
2022/12/20 07:55:14;;;;;;;4.88;2.28;;;;;;;;;;5044754;28;20029;-56
2022/12/20 07:57:45;;;;;;;3.97;2.60;;;;;;;;;;5048900;28;20053;-59
2022/12/20 08:00:11;;;;;;;6.93;3.00;;;;;;;;;;5050945;28;20131;-57
2022/12/20 08:02:46;;;;;;;5.60;2.50;;;;;;;;;;5050738;28;20059;-57
2022/12/20 08:05:13;;;;;;;4.43;2.53;;;;;;;;;;5048971;28;20078;-53
2022/12/20 08:07:41;;;;;;;5.18;2.75;;;;;;;;;;5049462;28;20029;-55
2022/12/20 08:10:10;;;;;;;5.35;2.80;;;;;;;;;;5049493;28;20516;-55
2022/12/20 08:12:35;;;;;;;6.05;2.78;;;;;;;;;;5050627;28;20033;-53
2022/12/20 08:15:01;;;;;;;4.45;2.72;;;;;;;;;;5044385;28;20079;-59
2022/12/20 08:17:27;;;;;;;6.03;2.90;;;;;;;;;;5062027;28;20064;-58
2022/12/20 08:19:52;;;;;;;4.18;2.60;;;;;;;;;;5035642;28;20030;-53
2022/12/20 08:22:18;;;;;;;6.07;2.70;;;;;;;;;;5031734;28;20033;-60
2022/12/20 08:24:44;;;;;;;3.67;2.30;;;;;;;;;;5054063;28;20108;-57
2022/12/20 08:27:09;;;;;;;3.80;2.63;;;;;;;;;;5053283;28;20109;-57
2022/12/20 08:29:35;;;;;;;6.55;2.72;;;;;;;;;;5054060;28;20082;-57
2022/12/20 08:32:00;;;;;;;3.88;2.35;;;;;;;;;;5062509;28;20041;-58
2022/12/20 08:34:26;;;;;;;3.88;2.13;;;;;;;;;;5052551;28;20044;-58
2022/12/20 08:36:51;;;;;;;3.65;2.40;;;;;;;;;;5035312;28;20037;-52
2022/12/20 08:39:17;;;;;;;5.55;2.83;;;;;;;;;;5049696;28;20028;-57
2022/12/20 08:41:42;;;;;;;6.25;2.22;;;;;;;;;;5052813;28;20041;-58
2022/12/20 08:44:09;;;;;;;5.22;2.40;;;;;;;;;;5041508;28;20037;-58
2022/12/20 08:46:35;;;;;;;4.03;2.30;;;;;;;;;;5034061;28;20025;-57
2022/12/20 08:49:02;;;;;;;4.88;2.33;;;;;;;;;;5060220;28;20045;-58
2022/12/20 08:51:27;;;;;;;5.18;2.13;;;;;;;;;;5068521;28;20385;-57
2022/12/20 08:53:53;;;;;;;4.95;2.40;;;;;;;;;;5037262;28;20029;-58
2022/12/20 08:56:19;;;;;;;4.30;2.40;;;;;;;;;;5049804;28;20056;-58
2022/12/20 08:58:44;;;;;;;3.75;2.30;;;;;;;;;;5053013;28;20033;-56
2022/12/20 09:01:13;;;;;;;5.57;2.20;;;;;;;;;;5050330;28;20095;-56
2022/12/20 09:03:39;;;;;;;3.15;2.20;;;;;;;;;;5053348;28;20819;-57
2022/12/20 09:06:10;;;;;;;4.35;2.25;;;;;;;;;;5050427;28;20039;-59
2022/12/20 09:08:37;;;;;;;5.20;2.30;;;;;;;;;;5054088;28;20033;-57
2022/12/20 09:11:14;;;;;;;5.68;2.58;;;;;;;;;;5053626;28;20533;-60
2022/12/20 09:13:41;;;;;;;3.72;2.13;;;;;;;;;;5046804;28;20534;-57
2022/12/20 09:16:07;;;;;;;4.30;2.40;;;;;;;;;;5035472;28;20032;-58
2022/12/20 09:18:34;;;;;;;4.00;2.22;;;;;;;;;;5053112;28;20021;-58
2022/12/20 09:21:01;;;;;;;3.50;2.25;;;;;;;;;;5049417;28;20060;-59
2022/12/20 09:23:27;;;;;;;4.40;2.08;;;;;;;;;;5052470;28;20029;-59
2022/12/20 09:25:53;;;;;;;3.15;2.00;;;;;;;;;;5052190;28;20036;-61
2022/12/20 09:28:19;;;;;;;5.35;2.20;;;;;;;;;;5057399;28;20036;-58
2022/12/20 09:30:44;;;;;;;4.70;2.55;;;;;;;;;;5053431;28;20536;-59
2022/12/20 09:33:09;;;;;;;4.88;2.50;;;;;;;;;;5057978;28;20031;-58
2022/12/20 09:35:35;;;;;;;3.47;2.22;;;;;;;;;;5059805;28;20074;-60
2022/12/20 09:38:00;;;;;;;4.53;2.40;;;;;;;;;;5053048;28;20482;-59
2022/12/20 09:40:31;;;;;;;4.43;2.00;;;;;;;;;;5048274;28;20038;-60
2022/12/20 09:42:57;;;;;;;4.93;2.75;;;;;;;;;;5054008;28;20025;-60
2022/12/20 09:45:33;;;;;;;4.30;2.40;;;;;;;;;;5057544;28;20038;-62
2022/12/20 09:47:58;;;;;;;4.05;2.30;;;;;;;;;;5055358;28;20114;-58
2022/12/20 09:50:52;;;;;;;4.60;2.60;;;;;;;;;;5048777;28;20061;-61
2022/12/20 09:53:32;;;;;;;5.00;2.50;;;;;;;;;;5046797;28;20032;-57
2022/12/20 09:56:08;;;;;;;4.88;2.40;;;;;;;;;;5046981;28;20102;-57
2022/12/20 09:58:45;;;;;;;5.15;2.50;;;;;;;;;;5051198;28;20120;-59
2022/12/20 10:01:26;;;;;;;3.83;2.30;;;;;;;;;;5050571;28;20508;-58
2022/12/20 10:03:52;;;;;;;11.23;2.57;;;;;;;;;;5051872;28;20466;-59
2022/12/20 10:06:45;;;;;;;5.00;2.80;;;;;;;;;;5052046;28;20366;-57
2022/12/20 10:09:35;;;;;;;8.55;2.90;;;;;;;;;;5052079;28;20450;-57
2022/12/20 10:12:44;;;;;;;5.80;2.72;;;;;;;;;;5051547;28;20454;-55
2022/12/20 10:15:10;;;;;;;5.88;2.80;;;;;;;;;;5051645;28;20155;-56
2022/12/20 10:17:38;;;;;;;4.63;2.45;;;;;;;;;;5051952;28;20032;-53
2022/12/20 10:20:10;;;;;;;5.88;2.90;;;;;;;;;;5052209;28;20032;-57
2022/12/20 10:22:48;;;;;;;5.35;3.10;;;;;;;;;;5051483;28;20552;-56
2022/12/20 10:25:23;;;;;;;5.53;2.80;;;;;;;;;;5051837;28;20037;-56
2022/12/20 10:27:52;;;;;;;4.50;2.40;;;;;;;;;;5051204;28;20033;-55
2022/12/20 10:30:20;;;;;;;5.18;2.22;;;;;;;;;;5050496;28;20029;-56
2022/12/20 10:32:55;;;;;;;4.47;2.30;;;;;;;;;;5045987;28;20081;-60
2022/12/20 10:35:24;;;;;;;6.25;2.60;;;;;;;;;;5050735;28;20036;-59
2022/12/20 10:37:59;;;;;;;5.22;2.80;;;;;;;;;;5050626;28;20029;-57
2022/12/20 10:40:34;;;;;;;5.75;2.50;;;;;;;;;;5051407;28;20480;-59
2022/12/20 10:43:02;;;;;;;5.10;2.65;;;;;;;;;;5050939;28;20422;-57
2022/12/20 10:45:39;;;;;;;3.72;2.20;;;;;;;;;;5050465;28;20366;-61
2022/12/20 10:48:24;;;;;;;6.78;2.72;;;;;;;;;;5049172;28;20107;-59
2022/12/20 10:51:08;;;;;;;4.93;2.30;;;;;;;;;;5031021;28;20044;-55
2022/12/20 10:53:35;;;;;;;5.00;2.53;;;;;;;;;;5049551;28;20041;-57
2022/12/20 10:56:17;;;;;;;4.78;2.35;;;;;;;;;;5053228;28;20140;-56
2022/12/20 10:59:01;;;;;;;4.97;2.40;;;;;;;;;;5060626;28;20036;-56
2022/12/20 11:01:33;;;;;;;5.03;2.40;;;;;;;;;;5069272;28;20052;-60
2022/12/20 11:04:01;;;;;;;4.43;2.67;;;;;;;;;;5052362;28;20025;-58
2022/12/20 11:06:29;;;;;;;4.95;2.70;;;;;;;;;;5051442;28;20037;-60
2022/12/20 11:09:32;;;;;;;4.82;2.35;;;;;;;;;;5050988;28;20090;-56
2022/12/20 11:12:13;;;;;;;5.25;2.50;;;;;;;;;;5055056;28;20473;-57
2022/12/20 11:14:39;;;;;;;4.07;2.33;;;;;;;;;;5063672;28;20040;-58
2022/12/20 11:17:59;;;;;;;6.22;2.40;;;;;;;;;;5036497;28;20120;-56
2022/12/20 11:20:49;;;;;;;4.97;2.45;;;;;;;;;;4989530;28;20099;-57
2022/12/20 11:23:48;;;;;;;6.17;2.50;;;;;;;;;;5048859;28;20132;-56
2022/12/20 11:26:25;;;;;;;5.53;2.55;;;;;;;;;;5051653;28;20036;-57
2022/12/20 11:29:09;;;;;;;5.63;2.50;;;;;;;;;;5053221;28;20024;-58
2022/12/20 11:32:06;;;;;;;7.50;2.63;;;;;;;;;;5049172;28;20025;-52
2022/12/20 11:34:52;;;;;;;5.75;2.60;;;;;;;;;;5050523;28;20041;-60
2022/12/20 11:37:28;;;;;;;5.32;2.17;;;;;;;;;;5063082;28;20033;-55
2022/12/20 11:40:15;;;;;;;4.22;2.42;;;;;;;;;;5049680;28;20063;-55
2022/12/20 11:43:04;;;;;;;5.80;2.40;;;;;;;;;;5048742;28;20047;-52
2022/12/20 11:45:41;;;;;;;4.53;2.60;;;;;;;;;;5050331;28;20456;-59
2022/12/20 11:48:13;;;;;;;4.72;2.30;;;;;;;;;;5049535;28;20043;-58
2022/12/20 11:50:48;;;;;;;4.60;2.20;;;;;;;;;;5049682;28;20382;-58
2022/12/20 11:53:28;;;;;;;4.50;2.15;;;;;;;;;;5051487;28;20025;-56
2022/12/20 11:56:00;;;;;;;6.18;2.40;;;;;;;;;;5048476;28;20043;-56
2022/12/20 11:58:34;;;;;;;5.53;2.40;;;;;;;;;;5050394;28;20035;-57
2022/12/20 12:01:15;;;;;;;4.95;2.47;;;;;;;;;;5048841;28;20036;-56
2022/12/20 12:03:52;;;;;;;5.28;2.78;;;;;;;;;;5050385;28;20134;-57
2022/12/20 12:06:43;;;;;;;4.97;2.40;;;;;;;;;;5048148;28;20057;-57
2022/12/20 12:09:37;;;;;;;6.13;2.30;;;;;;;;;;5048659;28;20041;-55
2022/12/20 12:12:43;;;;;;;4.68;2.50;;;;;;;;;;5050001;28;20132;-57
2022/12/20 12:15:34;;;;;;;3.53;2.05;;;;;;;;;;5031498;28;20033;-56
2022/12/20 12:18:06;;;;;;;2.67;1.73;;;;;;;;;;5049922;28;20061;-58
2022/12/20 12:20:51;;;;;;;3.03;2.00;;;;;;;;;;5049337;28;20029;-60
2022/12/20 12:23:30;;;;;;;6.80;2.10;;;;;;;;;;5050121;28;20470;-56
2022/12/20 12:26:01;;;;;;;4.00;2.05;;;;;;;;;;5050438;28;20494;-56
2022/12/20 12:28:26;;;;;;;5.10;2.38;;;;;;;;;;5050997;28;20136;-56
2022/12/20 12:30:58;;;;;;;4.22;2.17;;;;;;;;;;5046462;28;20103;-55
2022/12/20 12:33:29;;;;;;;5.35;2.30;;;;;;;;;;5050349;28;20120;-55
2022/12/20 12:36:25;;;;;;;3.80;2.10;;;;;;;;;;5050518;28;20029;-56
2022/12/20 12:39:16;;;;;;;5.10;2.08;;;;;;;;;;5049499;28;20037;-58
2022/12/20 12:41:47;;;;;;;;;;;;;;;;;;5049547;28;20108;-54
2022/12/20 12:44:19;;;;;;;;;;;;;;;;;;5050527;28;19908;-57
2022/12/20 12:46:50;;;;;;;3.60;2.10;;;;;;;;;;5048795;28;20452;-57
2022/12/20 12:49:20;;;;;;;4.13;2.08;;;;;;;;;;5048197;28;20033;-56
2022/12/20 12:51:55;;;;;;;3.95;2.15;;;;;;;;;;5050294;28;20489;-55
2022/12/20 12:54:22;;;;;;;5.60;1.92;;;;;;;;;;5049187;28;20033;-57
2022/12/20 12:56:49;;;;;;;5.40;1.90;;;;;;;;;;5044127;28;20049;-58
2022/12/20 12:59:32;;;;;;;3.95;2.10;;;;;;;;;;5038721;28;20033;-59
2022/12/20 13:02:13;;;;;;;2.08;1.80;;;;;;;;;;5049959;28;20033;-56
2022/12/20 13:04:53;;;;;;;4.18;2.00;;;;;;;;;;5047936;28;20021;-59
2022/12/20 13:07:34;;;;;;;5.25;2.28;;;;;;;;;;5050732;28;20037;-57
2022/12/20 13:10:23;;;;;;;4.70;1.95;;;;;;;;;;5051020;28;20028;-53
2022/12/20 13:12:49;;;;;;;7.22;2.22;;;;;;;;;;5051870;28;20029;-60
2022/12/20 13:15:40;;;;;;;4.60;1.80;;;;;;;;;;5053275;28;20171;-58
2022/12/20 13:18:09;;;;;;;4.32;1.88;;;;;;;;;;5052619;28;20048;-56
2022/12/20 13:20:35;;;;;;;5.15;2.38;;;;;;;;;;5051657;28;20064;-59
2022/12/20 13:23:07;;;;;;;6.07;2.20;;;;;;;;;;5054089;28;20108;-52
2022/12/20 13:25:41;;;;;;;5.07;1.83;;;;;;;;;;5053518;28;20093;-57
2022/12/20 13:28:29;;;;;;;3.13;1.80;;;;;;;;;;5053068;28;20032;-57
2022/12/20 13:31:00;;;;;;;4.28;1.75;;;;;;;;;;5046180;28;20386;-58
2022/12/20 13:33:46;;;;;;;5.07;2.22;;;;;;;;;;5053149;28;20029;-56
2022/12/20 13:36:11;;;;;;;4.90;2.15;;;;;;;;;;5053820;28;20041;-61
2022/12/20 13:38:39;;;;;;;5.93;2.65;;;;;;;;;;5042175;28;20037;-60
2022/12/20 13:41:21;;;;;;;5.50;3.22;;;;;;;;;;5051315;28;20029;-57
2022/12/20 13:43:49;;;;;;;5.05;2.80;;;;;;;;;;5051209;28;20052;-59
2022/12/20 13:46:31;;;;;;;8.68;3.63;;;;;;;;;;5052706;28;20057;-58
2022/12/20 13:49:03;;;;;;;7.15;3.22;;;;;;;;;;5051352;28;20077;-58
2022/12/20 13:51:29;;;;;;;6.63;3.35;;;;;;;;;;5053669;28;20500;-57
2022/12/20 13:54:14;;;;;;;8.55;4.13;;;;;;;;;;5052292;28;20044;-57
2022/12/20 13:56:50;;;;;;;8.70;3.97;;;;;;;;;;5051095;28;20096;-56
2022/12/20 13:59:25;;;;;;;12.68;5.18;;;;;;;;;;5052101;28;20033;-57
2022/12/20 14:01:54;;;;;;;13.73;6.88;;;;;;;;;;5049936;28;20106;-57
2022/12/20 14:04:20;;;;;;;15.13;7.47;;;;;;;;;;5052390;28;20040;-57
2022/12/20 14:06:56;;;;;;;12.63;5.88;;;;;;;;;;5051369;28;20045;-55
2022/12/20 14:09:33;;;;;;;8.43;5.28;;;;;;;;;;5051022;28;20367;-56
2022/12/20 14:12:11;;;;;;;9.15;4.88;;;;;;;;;;5046918;28;20028;-54
2022/12/20 14:14:44;;;;;;;11.77;5.13;;;;;;;;;;5040285;28;20029;-59
2022/12/20 14:17:26;;;;;;;7.85;4.90;;;;;;;;;;5052100;28;20117;-54
2022/12/20 14:20:11;;;;;;;11.82;5.30;;;;;;;;;;5051539;28;20033;-57
2022/12/20 14:22:37;;;;;;;12.95;5.57;;;;;;;;;;5051995;28;20033;-60
2022/12/20 14:25:05;;;;;;;12.25;5.50;;;;;;;;;;5052325;28;20040;-52
2022/12/20 14:27:34;;;;;;;15.82;6.43;;;;;;;;;;5047815;28;20112;-55
2022/12/20 14:29:59;;;;;;;14.98;5.95;;;;;;;;;;5045085;28;20104;-56
2022/12/20 14:32:25;;;;;;;11.45;5.72;;;;;;;;;;5052171;28;20385;-54
2022/12/20 14:34:52;;;;;;;11.52;5.60;;;;;;;;;;5052081;28;20466;-57
2022/12/20 14:37:31;;;;;;;10.85;5.30;;;;;;;;;;5051410;28;20032;-62
2022/12/20 14:40:09;;;;;;;11.57;5.72;;;;;;;;;;5050359;28;20152;-56
2022/12/20 14:42:37;;;;;;;9.88;5.40;;;;;;;;;;5051191;28;20104;-56
2022/12/20 14:45:17;;;;;;;12.25;5.47;;;;;;;;;;5048933;28;20039;-56
2022/12/20 14:48:14;;;;;;;9.23;5.43;;;;;;;;;;5040684;28;20029;-56
2022/12/20 14:50:45;;;;;;;11.93;4.95;;;;;;;;;;5050747;28;20064;-58
2022/12/20 14:53:20;;;;;;;11.00;5.30;;;;;;;;;;5051475;28;20382;-56
2022/12/20 14:55:46;;;;;;;11.80;5.38;;;;;;;;;;5039442;28;20463;-54
2022/12/20 14:58:32;;;;;;;11.73;5.68;;;;;;;;;;5051774;28;20029;-54
2022/12/20 15:01:20;;;;;;;11.00;5.25;;;;;;;;;;5057796;28;20074;-56
2022/12/20 15:03:53;;;;;;;9.35;4.70;;;;;;;;;;5052211;28;20060;-54
2022/12/20 15:06:38;;;;;;;11.63;5.50;;;;;;;;;;5066726;28;20032;-51
2022/12/20 15:09:04;;;;;;;10.15;5.70;;;;;;;;;;5051797;28;20029;-54
2022/12/20 15:11:32;;;;;;;11.18;5.90;;;;;;;;;;5048974;28;20090;-56
2022/12/20 15:13:57;;;;;;;11.73;5.28;;;;;;;;;;5048575;28;20460;-55